Time;durP1;ratioP1;P1;durP2;ratioP2;P2;SDS_P1;SDS_P2;PMS_P1;PMS_P2;Temp;Humidity;BMP_temperature;BMP_pressure;BME280_temperature;BME280_humidity;BME280_pressure;Samples;Min_cycle;Max_cycle;Signal;HPM_P1;HPM_P2
2023/10/09 00:02:09;;;;;;;7.85;4.30;;;25.30;99.90;;;;;;5044247;23;20049;-50
2023/10/09 00:04:40;;;;;;;7.63;4.88;;;25.30;99.90;;;;;;5033903;28;20034;-52
2023/10/09 00:07:08;;;;;;;7.55;4.03;;;25.30;99.90;;;;;;5026193;28;20025;-50
2023/10/09 00:09:46;;;;;;;8.02;4.22;;;25.30;99.90;;;;;;5008014;28;20359;-50
2023/10/09 00:12:25;;;;;;;6.28;4.20;;;25.30;99.90;;;;;;5004484;28;20413;-52
2023/10/09 00:14:55;;;;;;;8.50;4.40;;;25.20;99.90;;;;;;5034751;28;20049;-50
2023/10/09 00:17:22;;;;;;;10.70;4.68;;;25.20;99.90;;;;;;5054155;28;20051;-50
2023/10/09 00:19:51;;;;;;;10.02;4.22;;;25.20;99.90;;;;;;5052829;28;20520;-50
2023/10/09 00:22:26;;;;;;;;;;;;;;;;;;;;;
2023/10/09 00:25:11;;;;;;;7.75;4.43;;;25.20;99.90;;;;;;5034431;28;20048;-50
2023/10/09 00:27:42;;;;;;;8.27;4.68;;;25.20;99.90;;;;;;5034410;28;20041;-51
2023/10/09 00:30:21;;;;;;;8.02;4.13;;;25.20;99.90;;;;;;5030095;28;20022;-51
2023/10/09 00:33:03;;;;;;;9.32;5.00;;;25.10;99.90;;;;;;5024067;28;20022;-51
2023/10/09 00:40:56;;;;;;;7.95;4.60;;;25.10;99.90;;;;;;5034173;28;20022;-50
2023/10/09 00:43:28;;;;;;;9.02;4.50;;;25.10;99.90;;;;;;5034216;28;20381;-50
2023/10/09 00:45:54;;;;;;;8.48;4.70;;;25.10;99.90;;;;;;5034100;28;20021;-50
2023/10/09 00:48:30;;;;;;;8.57;4.22;;;25.10;99.90;;;;;;5016312;28;20384;-51
2023/10/09 00:51:00;;;;;;;11.30;4.50;;;25.10;99.90;;;;;;5033937;28;20095;-51
2023/10/09 00:53:33;;;;;;;8.93;4.35;;;25.00;99.90;;;;;;5033960;28;20454;-51
2023/10/09 00:56:04;;;;;;;6.47;4.28;;;25.00;99.90;;;;;;5033627;28;20032;-51
2023/10/09 00:58:35;;;;;;;6.30;3.83;;;25.00;99.90;;;;;;5033770;28;20103;-51
2023/10/09 01:01:04;;;;;;;7.60;4.18;;;25.00;99.90;;;;;;5045335;23;20422;-48
2023/10/09 01:03:33;;;;;;;6.45;3.67;;;25.00;99.90;;;;;;5049235;28;20033;-48
2023/10/09 01:11:23;;;;;;;7.65;4.07;;;25.00;99.90;;;;;;5013818;28;20037;-47
2023/10/09 01:16:17;;;;;;;5.97;4.38;;;24.90;99.90;;;;;;5033866;28;20029;-47
2023/10/09 01:18:44;;;;;;;6.43;4.30;;;24.90;99.90;;;;;;5016091;28;20109;-47
2023/10/09 01:21:13;;;;;;;5.97;4.07;;;24.90;99.90;;;;;;5033360;28;20029;-47
2023/10/09 01:26:44;;;;;;;11.23;4.40;;;24.90;99.90;;;;;;5029319;28;20386;-48
2023/10/09 01:29:14;;;;;;;8.32;4.47;;;24.90;99.90;;;;;;5033377;28;20418;-46
2023/10/09 01:32:00;;;;;;;13.02;4.45;;;24.90;99.90;;;;;;5033306;28;20025;-47
2023/10/09 01:34:44;;;;;;;8.15;4.35;;;24.90;99.90;;;;;;5019279;28;20096;-47
2023/10/09 01:37:25;;;;;;;5.97;3.50;;;24.90;99.90;;;;;;5038709;28;20029;-47
2023/10/09 01:39:53;;;;;;;8.30;3.83;;;24.80;99.90;;;;;;5033048;28;20528;-47
2023/10/09 01:44:58;;;;;;;5.65;3.53;;;24.80;99.90;;;;;;5038046;28;20065;-47
2023/10/09 01:47:26;;;;;;;7.53;4.55;;;24.80;99.90;;;;;;5032940;28;20033;-47
2023/10/09 01:49:53;;;;;;;7.40;3.83;;;24.80;99.90;;;;;;5032869;28;20025;-47
2023/10/09 01:52:20;;;;;;;;;;;24.80;99.90;;;;;;5033421;28;20040;-47
2023/10/09 01:54:48;;;;;;;8.20;4.35;;;24.80;99.90;;;;;;5026394;28;19915;-48
2023/10/09 01:57:16;;;;;;;10.40;4.68;;;24.80;99.90;;;;;;5052336;28;20078;-47
2023/10/09 01:59:43;;;;;;;9.77;4.55;;;24.70;99.90;;;;;;5052538;28;20470;-47
2023/10/09 02:07:58;;;;;;;8.43;3.83;;;24.70;99.90;;;;;;4958135;28;20070;-47
2023/10/09 02:12:57;;;;;;;7.72;4.13;;;24.70;99.90;;;;;;5032933;28;20056;-47
2023/10/09 02:18:25;;;;;;;12.90;4.30;;;24.60;99.90;;;;;;5052292;28;20473;-48
2023/10/09 02:21:17;;;;;;;7.07;4.57;;;24.70;99.90;;;;;;5049889;28;20040;-47
2023/10/09 02:26:17;;;;;;;8.60;4.13;;;24.60;99.90;;;;;;5052015;28;20112;-48
2023/10/09 02:28:43;;;;;;;9.15;3.95;;;24.60;99.90;;;;;;5048217;28;20089;-47
2023/10/09 02:31:13;;;;;;;8.55;4.35;;;24.60;99.90;;;;;;5042454;28;20560;-47
2023/10/09 02:33:40;;;;;;;8.43;4.18;;;24.50;99.90;;;;;;5046432;28;20033;-48
2023/10/09 02:36:06;;;;;;;8.75;4.30;;;24.50;99.90;;;;;;5052807;28;20020;-47
2023/10/09 02:38:35;;;;;;;6.30;4.03;;;24.60;99.90;;;;;;5051886;28;20044;-48
2023/10/09 02:43:44;;;;;;;10.77;4.82;;;24.50;99.90;;;;;;5051767;28;20151;-47
2023/10/09 02:46:18;;;;;;;8.60;4.53;;;24.50;99.90;;;;;;5042590;28;20025;-47
2023/10/09 02:48:50;;;;;;;7.60;4.32;;;24.50;99.90;;;;;;5052525;28;20025;-49
2023/10/09 02:53:57;;;;;;;9.27;4.70;;;24.50;99.90;;;;;;5051535;28;20036;-47
2023/10/09 02:56:24;;;;;;;11.85;4.72;;;24.50;99.90;;;;;;5052502;28;20033;-47
2023/10/09 02:59:05;;;;;;;9.35;4.55;;;24.50;99.90;;;;;;5055455;28;20160;-47
2023/10/09 03:01:31;;;;;;;7.38;4.43;;;24.50;99.90;;;;;;5056153;28;20041;-47
2023/10/09 03:04:02;;;;;;;8.95;4.53;;;24.50;99.90;;;;;;5055300;28;20084;-47
2023/10/09 03:06:32;;;;;;;7.55;4.22;;;24.50;99.90;;;;;;5055541;28;20033;-47
2023/10/09 03:08:58;;;;;;;6.88;4.72;;;24.50;99.90;;;;;;5055852;28;20024;-47
2023/10/09 03:11:26;;;;;;;16.60;4.68;;;24.50;99.90;;;;;;5055843;28;20018;-47
2023/10/09 03:13:54;;;;;;;9.48;4.35;;;24.40;99.90;;;;;;5055740;28;20094;-47
2023/10/09 03:16:20;;;;;;;8.15;4.35;;;24.40;99.90;;;;;;5055806;28;20032;-47
2023/10/09 03:18:51;;;;;;;9.68;4.38;;;24.40;99.90;;;;;;5055608;28;20039;-47
2023/10/09 03:21:17;;;;;;;11.52;4.43;;;24.40;99.90;;;;;;5055672;28;20143;-47
2023/10/09 03:23:50;;;;;;;7.10;4.07;;;24.40;99.90;;;;;;5055513;28;20025;-47
2023/10/09 03:26:20;;;;;;;9.05;4.18;;;24.40;99.90;;;;;;5035472;28;20021;-47
2023/10/09 03:28:47;;;;;;;6.90;4.40;;;24.40;99.90;;;;;;5035480;28;20026;-47
2023/10/09 03:31:13;;;;;;;7.13;5.03;;;24.40;99.90;;;;;;5042222;28;20403;-47
2023/10/09 03:33:39;;;;;;;7.30;4.35;;;24.40;99.90;;;;;;5055449;28;20026;-46
2023/10/09 03:36:09;;;;;;;10.85;4.60;;;24.40;99.90;;;;;;5055162;28;20381;-47
2023/10/09 03:38:36;;;;;;;7.70;3.83;;;24.40;99.90;;;;;;5053963;28;20500;-46
2023/10/09 03:41:06;;;;;;;6.68;4.70;;;24.40;99.90;;;;;;5055247;28;20393;-47
2023/10/09 03:43:40;;;;;;;6.93;4.20;;;24.40;99.90;;;;;;5055041;28;20048;-46
2023/10/09 03:46:20;;;;;;;5.80;4.13;;;24.30;99.90;;;;;;5054751;28;20032;-47
2023/10/09 03:48:47;;;;;;;6.28;3.70;;;24.30;99.90;;;;;;5055040;28;20040;-47
2023/10/09 03:51:21;;;;;;;8.60;5.30;;;24.30;99.90;;;;;;5055115;28;20044;-47
2023/10/09 03:53:47;;;;;;;7.78;4.10;;;24.30;99.90;;;;;;5055076;28;20025;-47
2023/10/09 03:56:15;;;;;;;8.65;4.40;;;24.30;99.90;;;;;;5054870;28;20033;-47
2023/10/09 03:58:45;;;;;;;;;;;24.30;99.90;;;;;;5055294;28;20124;-47
2023/10/09 04:03:48;;;;;;;12.48;4.55;;;24.30;99.90;;;;;;5055100;28;20074;-46
2023/10/09 04:06:17;;;;;;;6.18;4.45;;;24.20;99.90;;;;;;5054153;28;20029;-47
2023/10/09 04:08:48;;;;;;;9.10;4.85;;;24.20;99.90;;;;;;5054254;28;20057;-46
2023/10/09 04:11:22;;;;;;;12.77;5.65;;;24.30;99.90;;;;;;5054262;28;20032;-46
2023/10/09 04:13:49;;;;;;;13.35;5.53;;;24.20;99.90;;;;;;5054665;28;20033;-47
2023/10/09 04:19:05;;;;;;;8.43;4.63;;;24.20;99.90;;;;;;5054151;28;20052;-47
2023/10/09 04:21:34;;;;;;;12.48;5.22;;;24.20;99.90;;;;;;5043015;28;20032;-47
2023/10/09 04:26:37;;;;;;;8.82;4.05;;;24.20;99.90;;;;;;5054073;28;20028;-48
2023/10/09 04:29:03;;;;;;;9.43;4.40;;;24.20;99.90;;;;;;5054143;28;20052;-48
2023/10/09 04:31:37;;;;;;;6.95;4.72;;;24.20;99.90;;;;;;5054224;28;20029;-48
2023/10/09 04:36:57;;;;;;;7.47;4.18;;;24.20;99.90;;;;;;5054368;28;20032;-46
2023/10/09 04:44:39;;;;;;;10.30;4.18;;;24.10;99.90;;;;;;5053782;28;20075;-48
2023/10/09 05:01:15;;;;;;;7.55;4.20;;;24.10;99.90;;;;;;5053797;28;20083;-48
2023/10/09 05:05:59;;;;;;;6.32;3.72;;;24.10;99.90;;;;;;5050335;28;20036;-48
2023/10/09 05:08:29;;;;;;;7.57;4.40;;;24.20;99.90;;;;;;5052940;28;20389;-48
2023/10/09 05:16:15;;;;;;;6.28;4.00;;;24.20;99.90;;;;;;5033721;28;20096;-47
2023/10/09 05:18:44;;;;;;;7.45;4.00;;;24.20;99.90;;;;;;5047655;28;20106;-48
2023/10/09 05:23:48;;;;;;;8.27;4.47;;;24.30;99.90;;;;;;5034353;28;20021;-47
2023/10/09 05:26:37;;;;;;;10.32;5.68;;;24.30;99.90;;;;;;5015638;28;20329;-47
2023/10/09 05:29:19;;;;;;;6.07;4.13;;;24.30;99.90;;;;;;5033295;28;20458;-47
2023/10/09 05:31:57;;;;;;;9.27;4.78;;;24.30;99.90;;;;;;5040718;28;20031;-47
2023/10/09 05:37:24;;;;;;;11.18;5.13;;;24.30;99.90;;;;;;5033153;28;20489;-47
2023/10/09 05:47:56;;;;;;;10.13;4.40;;;24.30;99.90;;;;;;5032921;28;20022;-48
2023/10/09 06:24:41;;;;;;;9.25;5.57;;;24.50;99.90;;;;;;5052201;28;20031;-46
2023/10/09 06:27:24;;;;;;;10.70;5.65;;;24.50;99.90;;;;;;5034384;28;20418;-47
2023/10/09 06:34:46;;;;;;;8.50;4.65;;;24.50;99.90;;;;;;5034871;28;20025;-47
2023/10/09 06:45:11;;;;;;;7.38;5.00;;;24.70;99.90;;;;;;5032077;28;20153;-48
2023/10/09 06:50:42;;;;;;;10.85;5.05;;;24.70;99.90;;;;;;5030716;28;20047;-48
2023/10/09 06:55:48;;;;;;;8.93;4.75;;;24.70;99.90;;;;;;5071775;28;20032;-48
2023/10/09 06:58:27;;;;;;;9.90;5.40;;;24.70;99.90;;;;;;5051771;28;20020;-47
2023/10/09 07:01:19;;;;;;;9.55;4.95;;;24.70;99.90;;;;;;5071721;28;20045;-48
2023/10/09 07:03:52;;;;;;;12.30;5.18;;;24.70;99.90;;;;;;5069879;28;20393;-48
2023/10/09 07:06:47;;;;;;;10.77;5.32;;;24.70;99.90;;;;;;5070174;28;20040;-47
2023/10/09 07:17:26;;;;;;;12.20;5.63;;;24.80;99.90;;;;;;5037156;28;20078;-46
2023/10/09 07:24:58;;;;;;;12.80;5.25;;;24.80;99.90;;;;;;5060201;28;20071;-46
2023/10/09 07:27:44;;;;;;;17.15;6.00;;;24.80;99.90;;;;;;5071779;28;20028;-46
2023/10/09 07:38:10;;;;;;;8.13;5.05;;;24.90;99.90;;;;;;5071643;28;20033;-46
2023/10/09 07:46:32;;;;;;;10.98;5.10;;;24.90;99.90;;;;;;5057102;28;20032;-47
2023/10/09 07:49:14;;;;;;;9.93;4.75;;;24.90;99.90;;;;;;5035167;28;20071;-46
2023/10/09 07:51:43;;;;;;;11.07;5.60;;;24.90;99.90;;;;;;5035060;28;20155;-47
2023/10/09 07:54:14;;;;;;;12.68;6.07;;;24.90;99.90;;;;;;5038488;28;20018;-47
2023/10/09 07:56:46;;;;;;;12.35;5.75;;;25.00;99.90;;;;;;5055976;28;20103;-48
2023/10/09 07:59:19;;;;;;;11.38;5.72;;;25.00;99.90;;;;;;5072205;28;20040;-47
2023/10/09 08:02:02;;;;;;;9.25;5.65;;;25.00;99.90;;;;;;5074748;28;20052;-47
2023/10/09 08:04:37;;;;;;;8.65;5.80;;;25.00;99.90;;;;;;5074863;28;20021;-46
2023/10/09 08:07:08;;;;;;;9.30;5.40;;;25.00;99.90;;;;;;5070935;28;20465;-47
2023/10/09 08:09:47;;;;;;;11.23;5.75;;;25.00;99.90;;;;;;5075080;28;20052;-46
2023/10/09 08:17:59;;;;;;;8.23;5.15;;;25.10;99.90;;;;;;5071525;28;20032;-47
2023/10/09 08:20:26;;;;;;;10.05;5.55;;;25.20;99.90;;;;;;5069370;28;20060;-47
2023/10/09 08:22:55;;;;;;;10.02;5.90;;;25.20;99.90;;;;;;5055545;28;20028;-47
2023/10/09 08:25:26;;;;;;;8.90;4.75;;;25.30;99.90;;;;;;5036480;28;20041;-47
2023/10/09 08:27:57;;;;;;;8.43;4.68;;;25.30;99.90;;;;;;5036797;28;20052;-47
2023/10/09 08:33:39;;;;;;;10.00;5.53;;;25.40;99.90;;;;;;5063942;28;20115;-47
2023/10/09 08:35:55;;;;;;;6.93;4.30;;;25.40;99.90;;;;;;5034039;28;20037;-47
2023/10/09 08:38:24;;;;;;;7.60;4.50;;;25.40;99.90;;;;;;5044623;28;20059;-46
2023/10/09 08:40:54;;;;;;;7.70;5.57;;;25.40;99.90;;;;;;5064305;28;20032;-47
2023/10/09 08:43:21;;;;;;;13.43;4.72;;;25.50;99.90;;;;;;5064471;28;20013;-47
2023/10/09 08:46:02;;;;;;;11.50;4.90;;;25.50;99.90;;;;;;5054073;28;20362;-47
2023/10/09 08:48:29;;;;;;;9.18;4.85;;;25.50;99.90;;;;;;5054174;28;20029;-48
2023/10/09 08:50:56;;;;;;;7.70;4.63;;;25.50;99.90;;;;;;5058978;28;20048;-46
2023/10/09 08:53:31;;;;;;;11.82;6.05;;;25.60;99.90;;;;;;5052968;28;20413;-47
2023/10/09 08:55:57;;;;;;;10.90;5.13;;;25.60;99.90;;;;;;5053775;28;20032;-46
2023/10/09 08:58:36;;;;;;;11.18;4.88;;;25.60;99.90;;;;;;5036093;28;20385;-46
2023/10/09 09:01:02;;;;;;;6.82;4.68;;;25.60;99.90;;;;;;5031349;28;20068;-45
2023/10/09 09:03:39;;;;;;;7.88;4.80;;;25.70;99.90;;;;;;5053167;28;20021;-45
2023/10/09 09:06:05;;;;;;;8.10;4.85;;;25.70;99.90;;;;;;5047666;28;20041;-45
2023/10/09 09:08:36;;;;;;;7.60;4.18;;;25.70;99.90;;;;;;5053646;28;20428;-45
2023/10/09 09:11:12;;;;;;;12.25;5.28;;;25.70;99.90;;;;;;5053091;28;20029;-45
2023/10/09 09:14:04;;;;;;;10.00;6.38;;;25.70;99.90;;;;;;5052106;28;20100;-45
2023/10/09 09:16:36;;;;;;;12.55;5.18;;;25.70;99.90;;;;;;5035753;28;20029;-46
2023/10/09 09:21:48;;;;;;;7.57;4.75;;;25.80;99.90;;;;;;5053185;28;20058;-46
2023/10/09 09:26:47;;;;;;;11.05;4.85;;;25.80;99.90;;;;;;5053158;28;20089;-46
2023/10/09 09:29:17;;;;;;;7.03;3.90;;;25.80;99.90;;;;;;5053144;28;20028;-46
2023/10/09 09:31:54;;;;;;;11.23;4.40;;;25.90;99.90;;;;;;5052316;28;20056;-47
2023/10/09 09:34:25;;;;;;;6.72;4.20;;;26.00;99.90;;;;;;5052705;28;20044;-46
2023/10/09 09:36:53;;;;;;;7.22;3.95;;;26.00;99.90;;;;;;5052896;28;20029;-49
2023/10/09 09:39:28;;;;;;;9.77;4.43;;;26.00;99.90;;;;;;5031831;28;20124;-47
2023/10/09 09:42:07;;;;;;;7.53;3.92;;;26.10;99.90;;;;;;5047990;28;20071;-48
2023/10/09 09:44:43;;;;;;;6.03;4.00;;;26.20;99.90;;;;;;5047259;28;20029;-45
2023/10/09 09:47:13;;;;;;;7.32;4.00;;;26.20;99.90;;;;;;5048383;28;20481;-46
2023/10/09 09:49:42;;;;;;;6.07;4.18;;;26.30;99.90;;;;;;5050575;28;20053;-45
2023/10/09 09:52:12;;;;;;;7.38;4.10;;;26.40;99.90;;;;;;5049888;28;20060;-45
2023/10/09 09:54:39;;;;;;;10.40;5.07;;;26.50;99.90;;;;;;5049265;28;20063;-45
2023/10/09 09:57:10;;;;;;;8.10;4.97;;;26.50;99.90;;;;;;5046818;28;20013;-45
2023/10/09 09:59:50;;;;;;;13.05;5.55;;;26.60;99.90;;;;;;5049897;28;20073;-45
2023/10/09 10:02:22;;;;;;;9.65;5.35;;;26.60;99.90;;;;;;5033507;28;20563;-46
2023/10/09 10:04:53;;;;;;;10.25;5.30;;;26.70;99.90;;;;;;5045655;28;20033;-45
2023/10/09 10:07:22;;;;;;;7.90;4.72;;;26.80;99.90;;;;;;5031034;28;20530;-45
2023/10/09 10:09:54;;;;;;;8.50;4.63;;;26.80;99.90;;;;;;5027821;28;20528;-46
2023/10/09 10:12:59;;;;;;;11.27;5.57;;;26.90;99.90;;;;;;5022202;28;20032;-45
2023/10/09 10:15:57;;;;;;;10.52;4.47;;;27.00;99.90;;;;;;5021976;28;20029;-46
2023/10/09 10:18:24;;;;;;;12.10;5.97;;;27.10;99.90;;;;;;5041213;28;20037;-45
2023/10/09 10:21:33;;;;;;;12.43;6.75;;;27.30;99.90;;;;;;5031070;28;20030;-46
2023/10/09 10:24:11;;;;;;;13.77;7.22;;;27.40;99.90;;;;;;5031314;28;20533;-45
2023/10/09 10:26:37;;;;;;;16.48;7.45;;;27.50;99.90;;;;;;5044207;28;20427;-46
2023/10/09 10:29:33;;;;;;;12.88;7.63;;;27.50;99.90;;;;;;5041145;28;20030;-45
2023/10/09 10:32:08;;;;;;;13.98;8.18;;;27.60;99.90;;;;;;5039280;28;20028;-46
2023/10/09 10:34:58;;;;;;;18.05;7.93;;;27.70;99.90;;;;;;5030040;28;20037;-46
2023/10/09 10:37:50;;;;;;;16.10;8.43;;;27.80;99.90;;;;;;5029568;28;20032;-46
2023/10/09 10:44:33;;;;;;;15.73;8.75;;;27.90;99.90;;;;;;5039938;28;20083;-45
2023/10/09 10:46:13;;;;;;;14.73;9.05;;;28.00;99.90;;;;;;5022562;28;20077;-45
2023/10/09 10:48:40;;;;;;;13.95;7.72;;;28.00;99.90;;;;;;5030912;28;20036;-45
2023/10/09 10:51:06;;;;;;;13.88;8.32;;;28.10;99.90;;;;;;5027719;28;20022;-45
2023/10/09 10:53:47;;;;;;;8.65;5.82;;;28.20;99.90;;;;;;5028951;28;20029;-45
2023/10/09 11:01:50;;;;;;;10.55;6.63;;;28.50;99.90;;;;;;5035323;28;20117;-46
2023/10/09 11:04:24;;;;;;;14.73;7.22;;;28.60;99.90;;;;;;5012272;28;20282;-46
2023/10/09 11:12:42;;;;;;;7.07;3.47;;;28.70;99.90;;;;;;5030742;28;20119;-58
2023/10/09 11:18:06;;;;;;;6.93;3.85;;;28.80;99.90;;;;;;5031374;28;20033;-46
2023/10/09 11:20:38;;;;;;;10.70;3.50;;;28.80;99.90;;;;;;5039175;28;20026;-47
2023/10/09 11:23:14;;;;;;;8.50;3.15;;;28.80;99.90;;;;;;5032839;28;20053;-45
2023/10/09 11:26:07;;;;;;;6.77;3.27;;;28.80;99.90;;;;;;5033077;28;20060;-49
2023/10/09 11:28:48;;;;;;;7.53;3.13;;;28.80;99.90;;;;;;5036088;28;20281;-48
2023/10/09 11:31:17;;;;;;;4.55;3.15;;;28.80;99.90;;;;;;5034328;28;20028;-51
2023/10/09 11:33:51;;;;;;;4.47;2.80;;;28.80;99.90;;;;;;5036984;28;20112;-51
2023/10/09 11:36:32;;;;;;;5.15;3.40;;;28.80;99.90;;;;;;5039489;28;20029;-49
2023/10/09 11:39:17;;;;;;;6.03;3.10;;;28.80;99.90;;;;;;5050577;28;20106;-48
2023/10/09 11:41:44;;;;;;;5.35;3.17;;;28.80;99.90;;;;;;5032401;28;20021;-51
2023/10/09 11:44:23;;;;;;;7.85;3.78;;;28.80;99.90;;;;;;5033950;28;20031;-51
2023/10/09 11:52:46;;;;;;;6.75;3.95;;;28.80;99.90;;;;;;5035459;28;20087;-56
2023/10/09 11:55:16;;;;;;;5.15;3.55;;;28.80;99.90;;;;;;5016194;28;20025;-48
2023/10/09 11:57:41;;;;;;;8.10;3.20;;;28.70;99.90;;;;;;5034461;28;20033;-48
2023/10/09 12:00:28;;;;;;;5.68;3.55;;;28.70;99.90;;;;;;5022686;28;20084;-47
2023/10/09 12:02:54;;;;;;;5.82;3.42;;;28.70;99.90;;;;;;5033624;28;20037;-48
2023/10/09 12:05:20;;;;;;;8.10;3.58;;;28.60;99.90;;;;;;5033826;28;20021;-48
2023/10/09 12:07:47;;;;;;;6.63;3.33;;;28.60;99.90;;;;;;5039755;28;20036;-47
2023/10/09 12:10:24;;;;;;;11.85;3.95;;;28.60;99.90;;;;;;5050939;28;20069;-45
2023/10/09 12:12:50;;;;;;;;;;;28.70;99.90;;;;;;5034023;28;20025;-45
2023/10/09 12:15:17;;;;;;;11.23;3.47;;;28.60;99.90;;;;;;5044132;28;20297;-45
2023/10/09 12:17:47;;;;;;;;;;;28.70;99.90;;;;;;5019559;28;20021;-46
2023/10/09 12:20:31;;;;;;;7.45;4.45;;;28.70;99.90;;;;;;5035353;28;19917;-46
2023/10/09 12:23:01;;;;;;;4.22;3.78;;;28.70;99.90;;;;;;5031440;28;20025;-45
2023/10/09 12:25:31;;;;;;;9.57;6.30;;;28.80;99.90;;;;;;5031025;28;20033;-45
2023/10/09 12:28:01;;;;;;;8.15;3.55;;;28.80;99.90;;;;;;5050105;28;20017;-45
2023/10/09 12:30:29;;;;;;;7.68;3.95;;;28.90;99.90;;;;;;5035947;28;20041;-45
2023/10/09 12:32:57;;;;;;;;;;;28.90;99.90;;;;;;5033562;28;20017;-46
2023/10/09 12:35:24;;;;;;;7.63;4.70;;;28.90;99.90;;;;;;5029747;28;20357;-45
2023/10/09 12:37:51;;;;;;;9.80;4.00;;;28.90;99.90;;;;;;5032578;28;20430;-45
2023/10/09 12:40:24;;;;;;;8.98;3.95;;;28.90;99.90;;;;;;5015732;28;20037;-45
2023/10/09 12:42:55;;;;;;;6.13;3.42;;;28.90;99.90;;;;;;5032749;28;20025;-45
2023/10/09 12:45:27;;;;;;;5.88;3.75;;;28.90;99.90;;;;;;5032804;28;20104;-45
2023/10/09 12:47:59;;;;;;;5.22;3.72;;;28.90;99.90;;;;;;5036198;28;20099;-49
2023/10/09 12:50:28;;;;;;;6.90;3.80;;;28.90;99.90;;;;;;5038886;28;20099;-47
2023/10/09 12:53:06;;;;;;;4.95;3.72;;;28.90;99.90;;;;;;5030802;28;20548;-47
2023/10/09 12:55:42;;;;;;;6.45;3.85;;;28.90;99.90;;;;;;5023950;28;20022;-47
2023/10/09 12:58:09;;;;;;;6.40;4.10;;;28.80;99.90;;;;;;5029691;28;20024;-53
2023/10/09 13:00:48;;;;;;;4.25;3.53;;;28.80;99.90;;;;;;5034067;28;20557;-56
2023/10/09 13:03:18;;;;;;;8.60;4.53;;;28.90;99.90;;;;;;5052947;28;20025;-46
2023/10/09 13:05:54;;;;;;;6.00;3.88;;;28.90;99.90;;;;;;5052674;28;20031;-46
2023/10/09 13:08:31;;;;;;;7.87;3.70;;;28.90;99.90;;;;;;5053064;28;20496;-49
2023/10/09 13:11:04;;;;;;;6.43;3.70;;;28.90;99.90;;;;;;5042220;28;20285;-45
2023/10/09 13:13:50;;;;;;;9.70;3.50;;;28.90;99.90;;;;;;5033356;28;20386;-45
2023/10/09 13:16:23;;;;;;;8.23;3.53;;;28.90;99.90;;;;;;5050947;28;20192;-45
2023/10/09 13:19:09;;;;;;;5.97;3.33;;;29.00;99.90;;;;;;5039532;28;20508;-45
2023/10/09 13:21:39;;;;;;;6.70;3.70;;;28.90;99.90;;;;;;5052763;28;20076;-45
2023/10/09 13:24:12;;;;;;;9.65;4.40;;;28.90;99.90;;;;;;5051194;28;20031;-46
2023/10/09 13:26:46;;;;;;;8.65;3.90;;;28.80;99.90;;;;;;5052728;28;20021;-45
2023/10/09 13:29:13;;;;;;;9.00;4.13;;;28.80;99.90;;;;;;5035188;28;20489;-46
2023/10/09 13:31:46;;;;;;;5.60;4.22;;;28.70;99.90;;;;;;5052965;28;20032;-46
2023/10/09 13:34:14;;;;;;;6.55;3.80;;;28.60;99.90;;;;;;5052504;28;20039;-46
2023/10/09 13:36:45;;;;;;;7.60;4.30;;;28.60;99.90;;;;;;5052564;28;20017;-45
2023/10/09 13:39:53;;;;;;;5.53;3.70;;;28.60;99.90;;;;;;5052303;28;20071;-44
2023/10/09 13:42:01;;;;;;;5.38;3.80;;;28.60;99.90;;;;;;5042732;28;20041;-44
2023/10/09 13:44:33;;;;;;;10.05;4.30;;;28.60;99.90;;;;;;5052366;28;20027;-46
2023/10/09 13:47:01;;;;;;;7.75;4.32;;;28.70;99.90;;;;;;5052302;28;20028;-45
2023/10/09 13:49:30;;;;;;;8.45;4.75;;;28.80;99.90;;;;;;5034764;28;20032;-44
2023/10/09 13:52:03;;;;;;;6.53;4.32;;;28.90;99.90;;;;;;5052555;28;20087;-47
2023/10/09 13:57:05;;;;;;;5.18;3.22;;;29.00;99.90;;;;;;5072510;28;20373;-53
2023/10/09 13:59:34;;;;;;;7.32;3.85;;;29.10;99.90;;;;;;5057123;28;20067;-51
2023/10/09 14:02:02;;;;;;;6.32;3.60;;;29.20;99.90;;;;;;5051402;28;20041;-46
2023/10/09 14:04:28;;;;;;;6.45;3.67;;;29.20;99.90;;;;;;5051195;28;20021;-45
2023/10/09 14:06:58;;;;;;;6.85;3.70;;;29.10;99.90;;;;;;5051272;28;20029;-45
2023/10/09 14:09:31;;;;;;;4.40;3.25;;;29.00;99.90;;;;;;5052228;28;20052;-44
2023/10/09 14:12:09;;;;;;;12.30;3.95;;;28.90;99.90;;;;;;5051431;28;20031;-43
2023/10/09 14:14:40;;;;;;;8.77;3.95;;;28.80;99.90;;;;;;5051524;28;20028;-44
2023/10/09 14:17:13;;;;;;;6.60;4.65;;;28.80;99.90;;;;;;5049707;28;20032;-43
2023/10/09 14:19:41;;;;;;;5.85;3.63;;;28.80;99.90;;;;;;5051216;28;20037;-43
2023/10/09 14:22:07;;;;;;;7.57;3.17;;;28.80;99.90;;;;;;5050418;28;20048;-42
2023/10/09 14:24:34;;;;;;;6.75;3.22;;;28.80;99.90;;;;;;5041757;28;20070;-43
2023/10/09 14:27:04;;;;;;;6.72;3.17;;;28.80;99.90;;;;;;5050957;28;20025;-42
2023/10/09 14:29:31;;;;;;;11.60;3.28;;;28.80;99.90;;;;;;5051854;28;20037;-43
2023/10/09 14:32:00;;;;;;;8.45;3.63;;;28.80;99.90;;;;;;5037154;28;20057;-44
2023/10/09 14:34:35;;;;;;;5.10;3.70;;;28.80;99.90;;;;;;5051460;28;20029;-44
2023/10/09 14:37:01;;;;;;;6.03;3.13;;;28.80;99.90;;;;;;5051027;28;20037;-45
2023/10/09 14:39:28;;;;;;;7.13;3.47;;;28.80;99.90;;;;;;5051123;28;20040;-56
2023/10/09 14:41:57;;;;;;;6.20;3.72;;;28.80;99.90;;;;;;5051492;28;20017;-48
2023/10/09 14:44:27;;;;;;;8.18;3.88;;;28.80;99.90;;;;;;5047498;28;20395;-47
2023/10/09 14:46:55;;;;;;;4.88;3.33;;;28.90;99.90;;;;;;5050839;28;20029;-47
2023/10/09 14:49:21;;;;;;;4.90;3.33;;;28.90;99.90;;;;;;5051747;28;20426;-47
2023/10/09 14:51:47;;;;;;;9.90;3.78;;;28.80;99.90;;;;;;5047835;28;20025;-49
2023/10/09 14:54:17;;;;;;;6.35;3.63;;;28.90;99.90;;;;;;5055201;28;20033;-47
2023/10/09 14:56:45;;;;;;;8.48;4.32;;;28.90;99.90;;;;;;5052957;28;20090;-46
2023/10/09 14:59:11;;;;;;;6.68;3.97;;;28.80;99.90;;;;;;5055254;28;20029;-49
2023/10/09 15:01:37;;;;;;;5.43;3.60;;;28.80;99.90;;;;;;5054914;28;20037;-47
2023/10/09 15:04:03;;;;;;;5.00;3.45;;;28.70;99.90;;;;;;5055316;28;20040;-46
2023/10/09 15:06:30;;;;;;;8.07;3.65;;;28.70;99.90;;;;;;5055274;28;20044;-47
2023/10/09 15:09:22;;;;;;;9.57;4.03;;;28.70;99.90;;;;;;5054830;28;20033;-47
2023/10/09 15:11:48;;;;;;;8.75;4.10;;;28.70;99.90;;;;;;5054721;28;20033;-47
2023/10/09 15:14:15;;;;;;;9.27;3.78;;;28.70;99.90;;;;;;5054762;28;20075;-46
2023/10/09 15:16:42;;;;;;;10.20;3.92;;;28.70;99.90;;;;;;5055483;28;20392;-47
2023/10/09 15:19:10;;;;;;;11.15;4.63;;;28.80;99.90;;;;;;5054236;28;20045;-46
2023/10/09 15:21:45;;;;;;;6.10;4.18;;;28.80;99.90;;;;;;5055466;28;20028;-47
2023/10/09 15:24:20;;;;;;;9.23;3.88;;;28.90;99.90;;;;;;5055606;28;20036;-46
2023/10/09 15:26:57;;;;;;;7.88;3.83;;;28.90;99.90;;;;;;5055539;28;20024;-47
2023/10/09 15:29:30;;;;;;;5.78;4.03;;;29.00;99.90;;;;;;5054732;28;20028;-47
2023/10/09 15:32:04;;;;;;;7.45;4.05;;;28.90;99.90;;;;;;5052015;28;20033;-48
2023/10/09 15:34:37;;;;;;;7.50;4.55;;;28.80;99.90;;;;;;5054450;28;20175;-47
2023/10/09 15:37:13;;;;;;;7.68;4.28;;;28.70;99.90;;;;;;5054519;28;20029;-46
2023/10/09 15:39:39;;;;;;;7.65;3.60;;;28.70;99.90;;;;;;5055186;28;20110;-47
2023/10/09 15:42:06;;;;;;;6.05;3.55;;;28.70;99.90;;;;;;5054759;28;20041;-45
2023/10/09 15:44:36;;;;;;;7.55;3.97;;;28.70;99.90;;;;;;5054670;28;20546;-46
2023/10/09 15:47:03;;;;;;;12.23;4.18;;;28.60;99.90;;;;;;5054713;28;20040;-45
2023/10/09 15:49:33;;;;;;;8.57;3.85;;;28.60;99.90;;;;;;5054709;28;20029;-46
2023/10/09 15:52:01;;;;;;;10.50;3.90;;;28.60;99.90;;;;;;5054935;28;20021;-45
2023/10/09 15:54:27;;;;;;;;;;;28.60;99.90;;;;;;5055298;28;20109;-45
2023/10/09 15:56:54;;;;;;;8.05;4.28;;;28.60;99.90;;;;;;5054671;28;19912;-46
2023/10/09 15:59:20;;;;;;;7.68;3.63;;;28.60;99.90;;;;;;5054464;28;20457;-45
2023/10/09 16:01:46;;;;;;;9.98;4.15;;;28.70;99.90;;;;;;5054056;28;20091;-46
2023/10/09 16:04:11;;;;;;;12.50;4.40;;;28.70;99.90;;;;;;5052786;28;20048;-44
2023/10/09 16:06:41;;;;;;;16.17;5.95;;;28.70;99.90;;;;;;5036949;28;20377;-45
2023/10/09 16:09:15;;;;;;;11.13;5.47;;;28.80;99.90;;;;;;5054508;28;20033;-46
2023/10/09 16:11:41;;;;;;;8.85;4.50;;;28.80;99.90;;;;;;5052868;28;20108;-46
2023/10/09 16:14:09;;;;;;;13.27;4.47;;;28.90;99.90;;;;;;5053997;28;20036;-45
2023/10/09 16:16:41;;;;;;;7.50;4.55;;;28.90;99.90;;;;;;5054441;28;20092;-46
2023/10/09 16:19:10;;;;;;;7.68;4.05;;;28.90;99.90;;;;;;5054344;28;20935;-46
2023/10/09 16:21:36;;;;;;;9.23;4.65;;;28.90;99.90;;;;;;5054233;28;20025;-45
2023/10/09 16:24:05;;;;;;;13.23;4.95;;;29.00;99.90;;;;;;5054398;28;20032;-46
2023/10/09 16:26:39;;;;;;;11.52;5.53;;;29.00;99.90;;;;;;5054313;28;20028;-46
2023/10/09 16:29:09;;;;;;;12.27;5.30;;;29.00;99.90;;;;;;5053593;28;20481;-46
2023/10/09 16:31:35;;;;;;;9.23;4.60;;;29.10;99.90;;;;;;5054255;28;20033;-46
2023/10/09 16:34:06;;;;;;;11.10;5.35;;;29.10;99.90;;;;;;5054228;28;20020;-46
2023/10/09 16:36:35;;;;;;;8.27;5.07;;;29.10;99.90;;;;;;5054421;28;20374;-46
2023/10/09 16:39:05;;;;;;;8.52;4.78;;;29.20;99.90;;;;;;5036216;28;20466;-47
2023/10/09 16:41:37;;;;;;;10.52;4.80;;;29.20;99.90;;;;;;5053936;28;20485;-47